createdAt,value
2023-01-02T00:01:40.177Z,9.87
2023-01-02T00:06:48.059Z,9.83
2023-01-02T00:11:54.364Z,9.89
2023-01-02T00:17:00.648Z,9.84
2023-01-02T00:22:08.298Z,9.83
2023-01-02T00:27:14.741Z,9.85
2023-01-02T00:32:21.079Z,9.80
2023-01-02T00:37:28.984Z,9.83
2023-01-02T00:42:35.586Z,9.84
2023-01-02T00:47:42.095Z,9.89
2023-01-02T00:52:49.997Z,9.90
2023-01-02T00:57:56.271Z,9.88
2023-01-02T01:03:02.841Z,9.87
2023-01-02T01:08:10.785Z,9.86
2023-01-02T01:13:18.157Z,9.87
2023-01-02T01:18:24.467Z,9.86
2023-01-02T01:23:32.103Z,9.80
2023-01-02T01:28:38.625Z,9.81
2023-01-02T01:33:45.882Z,9.79
2023-01-02T01:38:53.986Z,9.64
2023-01-02T01:44:01.907Z,9.69
2023-01-02T01:49:14.426Z,9.72
2023-01-02T01:54:27.341Z,9.64
2023-01-02T01:59:35.802Z,9.64
2023-01-02T02:04:44.250Z,9.68
2023-01-02T02:09:58.482Z,9.72
2023-01-02T02:15:06.234Z,9.67
2023-01-02T02:20:33.140Z,9.71
2023-01-02T02:26:13.288Z,9.72
2023-01-02T02:31:32.123Z,9.73
2023-01-02T02:36:45.272Z,9.64
2023-01-02T02:42:04.237Z,9.58
2023-01-02T02:47:24.003Z,9.59
2023-01-02T02:52:35.027Z,9.48
2023-01-02T02:57:45.351Z,9.53
2023-01-02T03:02:53.508Z,9.48
2023-01-02T03:08:07.947Z,9.53
2023-01-02T03:13:21.938Z,9.53
2023-01-02T03:18:37.431Z,9.41
2023-01-02T03:23:46.974Z,9.41
2023-01-02T03:28:59.657Z,9.49
2023-01-02T03:34:15.958Z,9.46
2023-01-02T03:39:26.788Z,9.46
2023-01-02T03:44:41.646Z,9.44
2023-01-02T03:49:55.293Z,9.43
2023-01-02T03:55:02.905Z,9.42
2023-01-02T04:00:13.920Z,9.43
2023-01-02T04:05:27.808Z,9.41
2023-01-02T04:10:39.172Z,9.27
2023-01-02T04:15:49.260Z,9.09
2023-01-02T04:21:03.542Z,9.06
2023-01-02T04:26:15.165Z,9.01
2023-01-02T04:31:29.311Z,8.94
2023-01-02T04:36:41.642Z,9.01
2023-01-02T04:41:48.176Z,8.86
2023-01-02T04:46:54.739Z,8.87
2023-01-02T04:52:02.682Z,8.88
2023-01-02T04:57:09.509Z,8.90
2023-01-02T05:02:16.199Z,8.73
2023-01-02T05:07:24.494Z,8.75
2023-01-02T05:12:30.774Z,8.82
2023-01-02T05:17:37.971Z,8.82
2023-01-02T05:23:03.460Z,8.81
2023-01-02T05:28:09.804Z,8.83
2023-01-02T05:33:16.694Z,8.82
2023-01-02T05:38:24.547Z,8.80
2023-01-02T05:43:33.622Z,8.75
2023-01-02T05:48:40.356Z,8.63
2023-01-02T05:53:49.548Z,8.59
2023-01-02T05:58:56.287Z,8.55
2023-01-02T06:04:03.262Z,8.49
2023-01-02T06:09:14.954Z,8.58
2023-01-02T06:14:22.659Z,8.57
2023-01-02T06:19:29.768Z,8.49
2023-01-02T06:24:37.737Z,8.50
2023-01-02T06:29:44.180Z,8.52
2023-01-02T06:34:53.846Z,8.46
2023-01-02T06:40:01.810Z,8.48
2023-01-02T06:45:10.156Z,8.45
2023-01-02T06:50:16.400Z,8.46
2023-01-02T06:55:24.481Z,8.31
2023-01-02T07:00:31.106Z,8.24
2023-01-02T07:05:37.689Z,8.25
2023-01-02T07:10:52.544Z,8.16
2023-01-02T07:16:03.107Z,8.25
2023-01-02T07:21:11.708Z,8.34
2023-01-02T07:26:19.542Z,8.35
2023-01-02T07:31:26.871Z,8.38
2023-01-02T07:36:33.129Z,8.34
2023-01-02T07:41:40.872Z,8.32
2023-01-02T07:46:53.500Z,8.33
2023-01-02T07:51:59.929Z,8.33
2023-01-02T07:57:07.943Z,8.34
2023-01-02T08:02:14.647Z,8.38
2023-01-02T08:07:22.366Z,8.43
2023-01-02T08:12:30.387Z,8.46
2023-01-02T08:17:36.868Z,8.49
2023-01-02T08:22:43.186Z,8.51
2023-01-02T08:27:53.229Z,8.49
2023-01-02T08:32:59.515Z,8.50
2023-01-02T08:38:05.849Z,8.51
2023-01-02T08:43:16.187Z,8.54
2023-01-02T08:48:23.105Z,8.58
2023-01-02T08:53:30.592Z,8.58
2023-01-02T08:58:38.438Z,8.64
2023-01-02T09:03:44.947Z,8.62
2023-01-02T09:08:53.182Z,8.66
2023-01-02T09:14:02.240Z,8.71
2023-01-02T09:19:08.406Z,8.74
2023-01-02T09:24:15.292Z,8.75
2023-01-02T09:29:23.138Z,8.80
2023-01-02T09:34:29.722Z,8.87
2023-01-02T09:39:35.993Z,9.00
2023-01-02T09:44:48.804Z,9.07
2023-01-02T09:49:58.399Z,9.17
2023-01-02T09:55:15.257Z,9.22
2023-01-02T10:00:26.614Z,9.31
2023-01-02T10:06:02.807Z,9.35
2023-01-02T10:11:32.484Z,9.41
2023-01-02T10:16:44.583Z,9.46
2023-01-02T10:21:54.698Z,9.51
2023-01-02T10:27:03.497Z,9.53
2023-01-02T10:32:18.084Z,9.59
2023-01-02T10:37:28.440Z,9.62
2023-01-02T10:42:36.138Z,9.69
2023-01-02T10:47:45.009Z,9.78
2023-01-02T10:52:53.829Z,9.84
2023-01-02T10:58:06.037Z,9.88
2023-01-02T11:03:22.699Z,9.90
2023-01-02T11:08:39.641Z,9.93
2023-01-02T11:13:54.505Z,9.95
2023-01-02T11:19:04.556Z,10.02
2023-01-02T11:24:17.320Z,10.06
2023-01-02T11:29:33.384Z,10.12
2023-01-02T11:34:55.223Z,10.14
2023-01-02T11:40:04.526Z,10.17
2023-01-02T11:45:15.530Z,10.19
2023-01-02T11:50:28.554Z,10.29
2023-01-02T11:55:44.072Z,10.32
2023-01-02T12:00:56.314Z,10.36
2023-01-02T12:06:18.665Z,10.37
2023-01-02T12:11:41.206Z,10.40
2023-01-02T12:16:57.604Z,10.40
2023-01-02T12:22:30.644Z,10.39
2023-01-02T12:27:48.220Z,10.42
2023-01-02T12:33:31.615Z,10.45
2023-01-02T12:39:09.144Z,10.48
2023-01-02T12:44:33.865Z,10.52
2023-01-02T12:50:04.182Z,10.55
2023-01-02T12:55:39.040Z,10.59
2023-01-02T13:01:01.878Z,10.59
2023-01-02T13:06:45.404Z,10.55
2023-01-02T13:11:50.084Z,10.58
2023-01-02T13:17:08.449Z,10.57
2023-01-02T13:22:29.478Z,10.56
2023-01-02T13:27:37.281Z,10.57
2023-01-02T13:32:43.636Z,10.57
2023-01-02T13:37:50.198Z,10.59
2023-01-02T13:43:03.907Z,10.58
2023-01-02T13:48:32.067Z,10.58
2023-01-02T13:53:41.929Z,10.59
2023-01-02T13:58:53.155Z,10.55
2023-01-02T14:04:35.787Z,10.53
2023-01-02T14:10:09.526Z,10.53
2023-01-02T14:15:25.000Z,10.51
2023-01-02T14:20:35.172Z,10.49
2023-01-02T14:25:50.402Z,10.45
2023-01-02T14:31:01.104Z,10.42
2023-01-02T14:36:12.348Z,10.41
2023-01-02T14:42:29.389Z,10.38
2023-01-02T14:47:41.233Z,10.32
2023-01-02T14:52:54.559Z,10.30
2023-01-02T14:58:02.637Z,10.27
2023-01-02T15:03:23.467Z,10.23
2023-01-02T15:08:39.637Z,10.17
2023-01-02T15:14:04.128Z,10.14
2023-01-02T15:19:23.752Z,10.11
2023-01-02T15:24:31.905Z,10.08
2023-01-02T15:29:47.431Z,10.05
2023-01-02T15:35:13.407Z,10.04
2023-01-02T15:40:32.180Z,10.03
2023-01-02T15:45:39.771Z,10.00
2023-01-02T15:50:50.546Z,10.02
2023-01-02T15:55:58.443Z,10.02
2023-01-02T16:01:18.658Z,10.03
2023-01-02T16:06:34.520Z,10.07
2023-01-02T16:11:48.854Z,10.09
2023-01-02T16:17:04.552Z,10.11
2023-01-02T16:22:22.438Z,10.11
2023-01-02T16:27:34.135Z,10.12
2023-01-02T16:32:50.246Z,10.15
2023-01-02T16:38:00.180Z,10.19
2023-01-02T16:43:08.268Z,10.26
2023-01-02T16:48:20.690Z,10.30
2023-01-02T16:53:32.651Z,10.31
2023-01-02T16:58:39.033Z,10.34
2023-01-02T17:03:46.190Z,10.34
2023-01-02T17:08:54.526Z,10.36
2023-01-02T17:14:02.037Z,10.31
2023-01-02T17:19:08.607Z,10.23
2023-01-02T17:24:17.458Z,10.18
2023-01-02T17:29:24.313Z,10.15
2023-01-02T17:34:30.983Z,10.12
2023-01-02T17:39:39.027Z,10.07
2023-01-02T17:44:45.828Z,10.01
2023-01-02T17:49:52.368Z,9.95
2023-01-02T17:55:00.877Z,9.90
2023-01-02T18:00:10.850Z,9.82
2023-01-02T18:05:20.324Z,9.75
2023-01-02T18:10:32.942Z,9.69
2023-01-02T18:15:41.746Z,9.62
2023-01-02T18:20:49.004Z,9.54
2023-01-02T18:25:56.991Z,9.48
2023-01-02T18:31:03.742Z,9.38
2023-01-02T18:36:21.673Z,9.35
2023-01-02T18:41:32.266Z,9.32
2023-01-02T18:47:03.157Z,9.31
2023-01-02T18:52:25.490Z,9.26
2023-01-02T18:57:37.840Z,9.23
2023-01-02T19:02:57.563Z,9.26
2023-01-02T19:08:22.509Z,9.28
2023-01-02T19:13:35.864Z,9.29
2023-01-02T19:18:46.066Z,9.25
2023-01-02T19:23:59.624Z,9.27
2023-01-02T19:29:21.407Z,9.27
2023-01-02T19:34:44.738Z,9.27
2023-01-02T19:39:59.683Z,9.30
2023-01-02T19:45:13.137Z,9.31
2023-01-02T19:50:24.835Z,9.32
2023-01-02T19:55:32.726Z,9.33
2023-01-02T20:00:47.959Z,9.33
2023-01-02T20:05:56.730Z,9.32
2023-01-02T20:11:05.234Z,9.29
2023-01-02T20:16:16.637Z,9.25
2023-01-02T20:21:23.764Z,9.23
2023-01-02T20:26:31.385Z,9.21
2023-01-02T20:31:42.186Z,9.19
2023-01-02T20:36:51.657Z,9.12
2023-01-02T20:41:59.772Z,9.07
2023-01-02T20:47:09.444Z,9.04
2023-01-02T20:52:20.412Z,8.98
2023-01-02T20:57:28.049Z,8.87
2023-01-02T21:02:40.277Z,8.85
2023-01-02T21:07:48.656Z,8.84
2023-01-02T21:13:11.338Z,8.86
2023-01-02T21:18:22.575Z,8.85
2023-01-02T21:23:31.929Z,8.84
2023-01-02T21:28:40.994Z,8.83
2023-01-02T21:33:49.400Z,8.85
2023-01-02T21:38:55.905Z,8.84
2023-01-02T21:44:02.487Z,8.84
2023-01-02T21:49:10.349Z,8.85
2023-01-02T21:54:17.046Z,8.87
2023-01-02T21:59:25.745Z,8.88
2023-01-02T22:04:34.024Z,8.90
2023-01-02T22:09:41.806Z,8.88
2023-01-02T22:14:48.488Z,8.89
2023-01-02T22:19:56.755Z,8.88
2023-01-02T22:25:03.668Z,8.88
2023-01-02T22:30:23.308Z,8.91
2023-01-02T22:35:33.087Z,8.93
2023-01-02T22:40:39.681Z,8.93
2023-01-02T22:45:53.022Z,8.94
2023-01-02T22:51:02.965Z,8.95
2023-01-02T22:56:16.023Z,8.95
2023-01-02T23:01:31.364Z,8.96
2023-01-02T23:06:57.910Z,8.98
2023-01-02T23:12:06.714Z,9.00
2023-01-02T23:17:31.315Z,9.04
2023-01-02T23:22:39.102Z,9.08
2023-01-02T23:27:45.456Z,9.13
2023-01-02T23:32:51.825Z,9.14
2023-01-02T23:37:59.653Z,9.15
2023-01-02T23:43:06.016Z,9.20
2023-01-02T23:48:12.293Z,9.22
2023-01-02T23:53:20.355Z,9.23
2023-01-02T23:58:27.395Z,9.25
